Trinity, Nevada
Current Conditions -  °F | °C
As of 8:53 PM on Tuesday 25 Nov 2014 (Local Time) from KLOL Reporting Station
Clear Clear  
Wind Chill: 36°   Ceiling: Unl
Heat Index: 36°   Visibility: 10mi
Dew Point: 20°   Wind: 3mph
Humidity: 52%   Direction: 130°SE
Pressure: 30.44"   Gusts: NA
Location:  40.3545°N, 118.628°W
Report Text: KLOL 260453Z AUTO 13003KT 10SM CLR 02/M07 A3044 RMK AO2 SLP327 T00221067
Loading
Personal Weather Stations






























Interactive Weather Map New forecast layout! Learn more

10-Day Weather Forecast

Advertisements
Track Severe Weather on mobile